createdAt,value
2019-03-08T00:01:10.354Z,27.82
2019-03-08T00:03:43.730Z,27.34
2019-03-08T00:06:18.362Z,29.06
2019-03-08T00:08:51.875Z,30.32
2019-03-08T00:11:27.393Z,31.16
2019-03-08T00:14:02.042Z,32.00
2019-03-08T00:16:36.774Z,31.41
2019-03-08T00:19:11.929Z,31.36
2019-03-08T00:21:45.147Z,31.71
2019-03-08T00:24:18.558Z,31.47
2019-03-08T00:26:51.898Z,31.37
2019-03-08T00:29:26.099Z,30.93
2019-03-08T00:31:59.422Z,31.15
2019-03-08T00:34:37.511Z,31.93
2019-03-08T00:37:11.682Z,31.23
2019-03-08T00:39:45.303Z,31.01
2019-03-08T00:42:18.728Z,30.39
2019-03-08T00:44:55.606Z,30.80
2019-03-08T00:47:28.995Z,31.12
2019-03-08T00:50:02.291Z,30.26
2019-03-08T00:52:35.589Z,29.07
2019-03-08T00:55:11.671Z,29.31
2019-03-08T00:57:44.991Z,29.68
2019-03-08T01:00:27.481Z,28.73
2019-03-08T01:03:00.939Z,28.61
2019-03-08T01:05:34.391Z,29.84
2019-03-08T01:08:09.391Z,29.37
2019-03-08T01:10:42.584Z,29.55
2019-03-08T01:13:15.814Z,29.46
2019-03-08T01:15:49.341Z,27.29
2019-03-08T01:18:22.706Z,24.73
2019-03-08T01:20:56.383Z,24.61
2019-03-08T01:23:29.741Z,26.35
2019-03-08T01:26:05.077Z,26.38
2019-03-08T01:28:38.493Z,24.84
2019-03-08T01:31:11.777Z,25.65
2019-03-08T01:33:45.167Z,24.57
2019-03-08T01:36:18.620Z,25.12
2019-03-08T01:38:52.043Z,25.17
2019-03-08T01:41:26.529Z,25.09
2019-03-08T01:43:59.950Z,25.38
2019-03-08T01:46:33.397Z,24.79
2019-03-08T01:49:08.309Z,25.37
2019-03-08T01:51:42.012Z,24.96
2019-03-08T01:54:15.246Z,24.62
2019-03-08T01:56:48.544Z,24.39
2019-03-08T01:59:21.803Z,24.67
2019-03-08T02:01:55.419Z,24.83
2019-03-08T02:04:28.771Z,25.22
2019-03-08T02:07:02.137Z,25.18
2019-03-08T02:09:38.065Z,24.75
2019-03-08T02:12:11.670Z,24.71
2019-03-08T02:14:45.075Z,24.47
2019-03-08T02:17:20.850Z,24.85
2019-03-08T02:19:53.217Z,24.24
2019-03-08T02:22:26.955Z,23.64
2019-03-08T02:25:00.372Z,23.41
2019-03-08T02:27:39.072Z,22.29
2019-03-08T02:30:16.887Z,21.72
2019-03-08T02:32:50.550Z,21.29
2019-03-08T02:35:24.302Z,21.59
2019-03-08T02:37:57.719Z,21.34
2019-03-08T02:40:38.285Z,21.89
2019-03-08T02:43:17.154Z,21.11
2019-03-08T02:45:51.977Z,21.24
2019-03-08T02:48:25.273Z,21.30
2019-03-08T02:51:00.169Z,21.45
2019-03-08T02:53:33.622Z,21.20
2019-03-08T02:56:09.350Z,20.86
2019-03-08T02:58:43.089Z,20.93
2019-03-08T03:01:16.510Z,20.66
2019-03-08T03:03:50.470Z,20.20
2019-03-08T03:06:23.774Z,20.31
2019-03-08T03:08:58.090Z,20.23
2019-03-08T03:11:32.009Z,19.98
2019-03-08T03:14:12.425Z,19.55
2019-03-08T03:16:45.800Z,19.47
2019-03-08T03:19:23.064Z,19.04
2019-03-08T03:22:02.882Z,19.08
2019-03-08T03:24:41.967Z,18.88
2019-03-08T03:27:09.022Z,18.96
2019-03-08T03:29:42.353Z,18.64
2019-03-08T03:32:15.626Z,18.81
2019-03-08T03:34:48.898Z,18.99
2019-03-08T03:37:23.210Z,18.47
2019-03-08T03:39:58.513Z,18.28
2019-03-08T03:42:33.810Z,18.26
2019-03-08T03:45:09.404Z,17.79
2019-03-08T03:47:42.810Z,17.85
2019-03-08T03:50:18.338Z,18.02
2019-03-08T03:52:53.445Z,17.73
2019-03-08T03:55:28.174Z,17.33
2019-03-08T03:58:01.799Z,17.05
2019-03-08T04:00:35.103Z,17.19
2019-03-08T04:03:10.182Z,16.90
2019-03-08T04:05:43.446Z,16.90
2019-03-08T04:08:16.766Z,17.05
2019-03-08T04:10:51.781Z,16.92
2019-03-08T04:13:25.229Z,17.15
2019-03-08T04:15:59.976Z,17.53
2019-03-08T04:18:33.401Z,17.35
2019-03-08T04:21:06.573Z,16.68
2019-03-08T04:23:39.912Z,16.78
2019-03-08T04:26:13.334Z,16.19
2019-03-08T04:28:46.622Z,16.14
2019-03-08T04:31:19.875Z,16.29
2019-03-08T04:33:53.516Z,16.33
2019-03-08T04:36:30.356Z,16.61
2019-03-08T04:39:03.667Z,16.26
2019-03-08T04:41:38.233Z,16.51
2019-03-08T04:44:11.851Z,16.00
2019-03-08T04:46:46.648Z,15.78
2019-03-08T04:49:21.490Z,15.77
2019-03-08T04:51:54.772Z,15.69
2019-03-08T04:54:29.731Z,15.71
2019-03-08T04:57:02.950Z,15.90
2019-03-08T04:59:36.225Z,16.12
2019-03-08T05:02:09.666Z,15.82
2019-03-08T05:04:43.128Z,15.64
2019-03-08T05:07:16.414Z,15.92
2019-03-08T05:09:49.679Z,16.04
2019-03-08T05:12:23.033Z,15.83
2019-03-08T05:14:58.263Z,15.82
2019-03-08T05:17:31.619Z,15.92
2019-03-08T05:20:05.554Z,16.13
2019-03-08T05:22:40.595Z,15.93
2019-03-08T05:25:15.158Z,15.61
2019-03-08T05:27:48.593Z,15.80
2019-03-08T05:30:22.253Z,16.25
2019-03-08T05:32:55.514Z,15.67
2019-03-08T05:35:29.039Z,14.96
2019-03-08T05:38:03.191Z,14.89
2019-03-08T05:40:36.777Z,14.61
2019-03-08T05:43:10.693Z,14.78
2019-03-08T05:45:45.369Z,14.00
2019-03-08T05:48:18.647Z,14.33
2019-03-08T05:50:51.945Z,14.68
2019-03-08T05:53:25.745Z,14.67
2019-03-08T05:55:59.634Z,14.52
2019-03-08T05:58:33.222Z,14.58
2019-03-08T06:01:06.400Z,14.42
2019-03-08T06:03:39.708Z,14.82
2019-03-08T06:06:13.035Z,14.59
2019-03-08T06:08:46.282Z,14.82
2019-03-08T06:11:19.617Z,14.87
2019-03-08T06:13:54.632Z,15.31
2019-03-08T06:16:28.946Z,15.40
2019-03-08T06:19:03.260Z,15.12
2019-03-08T06:21:36.561Z,15.28
2019-03-08T06:24:10.282Z,15.24
2019-03-08T06:26:43.686Z,15.26
2019-03-08T06:29:18.262Z,15.77
2019-03-08T06:31:51.758Z,15.21
2019-03-08T06:34:25.348Z,15.60
2019-03-08T06:36:58.780Z,15.47
2019-03-08T06:39:34.255Z,15.32
2019-03-08T06:42:09.802Z,15.14
2019-03-08T06:44:43.097Z,15.11
2019-03-08T06:47:16.587Z,15.22
2019-03-08T06:49:49.928Z,15.13
2019-03-08T06:52:23.628Z,15.42
2019-03-08T06:55:01.232Z,15.98
2019-03-08T06:57:34.503Z,15.64
2019-03-08T07:00:10.331Z,15.17
2019-03-08T07:02:44.192Z,15.34
2019-03-08T07:05:17.514Z,15.25
2019-03-08T07:07:52.007Z,15.17
2019-03-08T07:10:26.949Z,15.00
2019-03-08T07:13:03.537Z,15.58
2019-03-08T07:15:35.004Z,15.15
2019-03-08T07:18:12.574Z,15.30
2019-03-08T07:20:43.038Z,15.28
2019-03-08T07:23:16.321Z,14.60
2019-03-08T07:25:52.601Z,14.98
2019-03-08T07:28:24.182Z,14.86
2019-03-08T07:30:58.207Z,14.43
2019-03-08T07:33:31.527Z,14.78
2019-03-08T07:36:06.719Z,14.70
2019-03-08T07:38:40.231Z,14.85
2019-03-08T07:41:13.811Z,14.24
2019-03-08T07:43:47.200Z,14.57
2019-03-08T07:46:20.761Z,14.32
2019-03-08T07:48:54.316Z,14.03
2019-03-08T07:51:27.629Z,14.21
2019-03-08T07:54:01.316Z,14.32
2019-03-08T07:56:35.801Z,14.76
2019-03-08T07:59:09.578Z,14.76
2019-03-08T08:01:42.911Z,14.58
2019-03-08T08:04:19.341Z,14.44
2019-03-08T08:07:01.230Z,14.78
2019-03-08T08:09:53.761Z,14.42
2019-03-08T08:12:27.666Z,14.61
2019-03-08T08:15:01.145Z,14.63
2019-03-08T08:17:38.195Z,14.66
2019-03-08T08:20:16.342Z,14.70
2019-03-08T08:22:47.700Z,14.90
2019-03-08T08:25:21.223Z,14.67
2019-03-08T08:27:54.615Z,14.77
2019-03-08T08:30:29.490Z,14.72
2019-03-08T08:33:03.060Z,14.62
2019-03-08T08:35:36.320Z,14.79
2019-03-08T08:38:12.838Z,14.97
2019-03-08T08:40:46.395Z,14.94
2019-03-08T08:43:20.137Z,15.19
2019-03-08T08:45:55.107Z,15.28
2019-03-08T08:48:29.777Z,15.38
2019-03-08T08:51:03.153Z,15.52
2019-03-08T08:53:36.507Z,16.02
2019-03-08T08:56:10.594Z,15.79
2019-03-08T08:58:44.044Z,15.79
2019-03-08T09:01:17.398Z,15.82
2019-03-08T09:03:51.380Z,15.84
2019-03-08T09:06:26.718Z,16.52
2019-03-08T09:09:00.207Z,16.25
2019-03-08T09:11:43.800Z,16.36
2019-03-08T09:14:10.577Z,16.73
2019-03-08T09:16:45.992Z,16.60
2019-03-08T09:19:20.981Z,16.42
2019-03-08T09:21:54.659Z,16.84
2019-03-08T09:24:29.764Z,16.66
2019-03-08T09:27:03.403Z,16.69
2019-03-08T09:29:41.225Z,16.79
2019-03-08T09:32:16.586Z,17.23
2019-03-08T09:34:53.156Z,17.24
2019-03-08T09:37:29.827Z,17.15
2019-03-08T09:40:05.107Z,17.56
2019-03-08T09:42:38.891Z,17.50
2019-03-08T09:45:13.521Z,17.81
2019-03-08T09:47:48.056Z,17.77
2019-03-08T09:50:27.199Z,18.13
2019-03-08T09:53:02.673Z,17.98
2019-03-08T09:55:38.860Z,18.42
2019-03-08T09:58:13.848Z,18.23
2019-03-08T10:00:48.091Z,18.09
2019-03-08T10:03:21.701Z,18.32
2019-03-08T10:05:57.076Z,18.85
2019-03-08T10:08:32.803Z,18.63
2019-03-08T10:11:07.014Z,18.65
2019-03-08T10:13:41.493Z,19.03
2019-03-08T10:16:17.983Z,18.71
2019-03-08T10:18:54.113Z,19.32
2019-03-08T10:21:28.282Z,19.20
2019-03-08T10:24:04.217Z,19.58
2019-03-08T10:26:39.816Z,19.88
2019-03-08T10:29:15.106Z,19.79
2019-03-08T10:31:49.054Z,19.95
2019-03-08T10:34:25.541Z,19.75
2019-03-08T10:37:01.218Z,19.94
2019-03-08T10:39:38.105Z,19.85
2019-03-08T10:42:13.202Z,20.30
2019-03-08T10:44:50.125Z,20.71
2019-03-08T10:47:31.181Z,20.83
2019-03-08T10:50:10.336Z,20.71
2019-03-08T10:52:51.523Z,20.55
2019-03-08T10:55:25.874Z,21.56
2019-03-08T10:58:01.684Z,21.53
2019-03-08T11:00:38.788Z,21.65
2019-03-08T11:03:15.789Z,21.55
2019-03-08T11:05:51.021Z,22.20
2019-03-08T11:08:29.709Z,22.20
2019-03-08T11:11:06.576Z,22.29
2019-03-08T11:13:45.550Z,22.13
2019-03-08T11:16:25.052Z,22.12
2019-03-08T11:19:08.458Z,22.22
2019-03-08T11:21:37.091Z,22.28
2019-03-08T11:24:13.225Z,22.34
2019-03-08T11:26:48.018Z,22.79
2019-03-08T11:29:22.324Z,22.56
2019-03-08T11:31:56.567Z,22.37
2019-03-08T11:34:32.707Z,23.30
2019-03-08T11:37:07.727Z,22.46
2019-03-08T11:39:42.193Z,23.18
2019-03-08T11:42:16.599Z,23.10
2019-03-08T11:44:51.073Z,23.31
2019-03-08T11:47:25.427Z,23.31
2019-03-08T11:50:00.038Z,23.47
2019-03-08T11:52:34.755Z,23.48
2019-03-08T11:55:10.769Z,23.48
2019-03-08T11:57:45.152Z,23.85
2019-03-08T12:00:20.104Z,24.05
2019-03-08T12:02:54.879Z,24.54
2019-03-08T12:05:29.333Z,24.61
2019-03-08T12:08:05.130Z,24.52
2019-03-08T12:10:41.430Z,24.70
2019-03-08T12:13:16.721Z,25.04
2019-03-08T12:15:57.056Z,25.18
2019-03-08T12:18:34.279Z,25.42
2019-03-08T12:21:09.512Z,25.21
2019-03-08T12:23:49.159Z,25.68
2019-03-08T12:26:24.689Z,25.60
2019-03-08T12:28:59.235Z,24.97
2019-03-08T12:31:33.380Z,24.98
2019-03-08T12:34:07.757Z,24.89
2019-03-08T12:36:42.764Z,24.42
2019-03-08T12:39:18.360Z,24.45
2019-03-08T12:41:54.177Z,24.64
2019-03-08T12:44:28.859Z,24.67
2019-03-08T12:47:04.123Z,24.56
2019-03-08T12:49:38.575Z,24.51
2019-03-08T12:52:17.719Z,24.41
2019-03-08T12:54:52.226Z,24.36
2019-03-08T12:57:26.318Z,24.41
2019-03-08T13:00:00.519Z,24.73
2019-03-08T13:02:35.156Z,24.83
2019-03-08T13:05:10.111Z,25.12
2019-03-08T13:07:46.564Z,25.04
2019-03-08T13:10:22.311Z,24.98
2019-03-08T13:12:56.972Z,24.79
2019-03-08T13:15:31.492Z,25.01
2019-03-08T13:18:06.169Z,25.19
2019-03-08T13:20:40.326Z,25.37
2019-03-08T13:23:16.874Z,25.06
2019-03-08T13:25:51.143Z,24.96
2019-03-08T13:28:29.616Z,25.00
2019-03-08T13:31:04.288Z,25.10
2019-03-08T13:33:38.903Z,25.09
2019-03-08T13:36:13.153Z,25.55
2019-03-08T13:38:47.176Z,25.63
2019-03-08T13:41:21.204Z,25.50
2019-03-08T13:43:55.892Z,25.35
2019-03-08T13:46:29.915Z,25.44
2019-03-08T13:49:04.457Z,25.51
2019-03-08T13:51:39.024Z,25.83
2019-03-08T13:54:15.214Z,25.63
2019-03-08T13:56:49.325Z,25.85
2019-03-08T13:59:23.601Z,26.00
2019-03-08T14:01:58.056Z,26.01
2019-03-08T14:04:32.388Z,26.37
2019-03-08T14:07:06.165Z,26.56
2019-03-08T14:09:42.319Z,26.71
2019-03-08T14:12:16.419Z,26.89
2019-03-08T14:14:52.068Z,27.06
2019-03-08T14:17:29.649Z,27.52
2019-03-08T14:20:03.713Z,27.52
2019-03-08T14:22:39.019Z,28.07
2019-03-08T14:25:14.179Z,28.35
2019-03-08T14:27:49.702Z,28.52
2019-03-08T14:30:26.741Z,28.73
2019-03-08T14:33:01.535Z,29.13
2019-03-08T14:35:34.227Z,29.75
2019-03-08T14:38:09.696Z,29.36
2019-03-08T14:40:43.410Z,29.61
2019-03-08T14:43:17.881Z,29.61
2019-03-08T14:45:51.804Z,29.64
2019-03-08T14:48:29.463Z,29.75
2019-03-08T14:51:09.211Z,29.66
2019-03-08T14:53:41.956Z,29.84
2019-03-08T14:56:15.425Z,29.74
2019-03-08T14:58:48.715Z,29.62
2019-03-08T15:01:22.014Z,29.34
2019-03-08T15:03:56.597Z,29.39
2019-03-08T15:06:30.054Z,29.44
2019-03-08T15:09:03.659Z,29.41
2019-03-08T15:11:37.467Z,29.50
2019-03-08T15:14:12.523Z,29.58
2019-03-08T15:16:46.195Z,29.67
2019-03-08T15:19:21.122Z,29.86
2019-03-08T15:21:54.356Z,29.84
2019-03-08T15:24:27.820Z,30.09
2019-03-08T15:27:01.414Z,30.40
2019-03-08T15:29:36.845Z,30.41
2019-03-08T15:32:10.821Z,30.57
2019-03-08T15:34:44.288Z,30.89
2019-03-08T15:37:18.219Z,30.95
2019-03-08T15:39:51.774Z,31.12
2019-03-08T15:42:25.345Z,31.35
2019-03-08T15:45:01.813Z,31.54
2019-03-08T15:47:36.224Z,31.61
2019-03-08T15:50:09.859Z,31.75
2019-03-08T15:52:43.399Z,31.54
2019-03-08T15:55:18.223Z,31.90
2019-03-08T15:57:51.741Z,31.86
2019-03-08T16:00:25.666Z,31.77
2019-03-08T16:02:59.000Z,31.88
2019-03-08T16:05:32.317Z,31.79
2019-03-08T16:08:08.155Z,31.87
2019-03-08T16:10:41.681Z,31.95
2019-03-08T16:13:17.197Z,31.92
2019-03-08T16:15:50.553Z,31.90
2019-03-08T16:18:23.825Z,31.93
2019-03-08T16:20:57.035Z,31.77
2019-03-08T16:23:30.383Z,32.19
2019-03-08T16:26:03.683Z,31.90
2019-03-08T16:28:37.056Z,32.16
2019-03-08T16:31:10.156Z,32.00
2019-03-08T16:33:43.099Z,32.24
2019-03-08T16:36:16.040Z,32.24
2019-03-08T16:38:48.992Z,32.14
2019-03-08T16:41:22.053Z,32.29
2019-03-08T16:43:55.037Z,32.39
2019-03-08T16:46:29.247Z,32.51
2019-03-08T16:49:02.735Z,32.53
2019-03-08T16:51:36.640Z,32.61
2019-03-08T16:54:09.665Z,32.71
2019-03-08T16:56:44.706Z,33.01
2019-03-08T16:59:17.972Z,33.32
2019-03-08T17:01:51.270Z,33.51
2019-03-08T17:04:24.628Z,33.62
2019-03-08T17:06:57.953Z,33.85
2019-03-08T17:09:36.017Z,34.16
2019-03-08T17:12:07.683Z,34.25
2019-03-08T17:14:40.932Z,34.25
2019-03-08T17:17:17.386Z,34.45
2019-03-08T17:19:52.727Z,34.66
2019-03-08T17:22:26.036Z,34.62
2019-03-08T17:24:59.336Z,34.83
2019-03-08T17:27:32.851Z,35.28
2019-03-08T17:30:07.345Z,35.51
2019-03-08T17:32:40.664Z,35.74
2019-03-08T17:35:14.374Z,35.66
2019-03-08T17:37:48.719Z,35.90
2019-03-08T17:40:21.945Z,36.14
2019-03-08T17:42:57.069Z,36.47
2019-03-08T17:45:30.317Z,36.30
2019-03-08T17:48:03.642Z,36.34
2019-03-08T17:50:38.304Z,36.45
2019-03-08T17:53:14.193Z,36.67
2019-03-08T17:55:47.574Z,36.38
2019-03-08T17:58:21.171Z,36.58
2019-03-08T18:00:54.635Z,36.63
2019-03-08T18:03:27.905Z,36.77
2019-03-08T18:06:01.556Z,37.01
2019-03-08T18:08:36.694Z,37.18
2019-03-08T18:11:11.094Z,37.42
2019-03-08T18:13:44.593Z,37.19
2019-03-08T18:16:17.932Z,37.44
2019-03-08T18:18:51.235Z,37.36
2019-03-08T18:21:27.673Z,37.73
2019-03-08T18:24:01.047Z,37.79
2019-03-08T18:26:34.426Z,37.93
2019-03-08T18:29:11.856Z,38.09
2019-03-08T18:31:43.574Z,37.92
2019-03-08T18:34:16.949Z,37.87
2019-03-08T18:36:50.538Z,38.01
2019-03-08T18:39:23.957Z,38.27
2019-03-08T18:41:57.457Z,38.30
2019-03-08T18:44:31.181Z,38.34
2019-03-08T18:47:04.561Z,38.00
2019-03-08T18:49:38.710Z,37.99
2019-03-08T18:52:12.058Z,38.31
2019-03-08T18:54:45.538Z,38.33
2019-03-08T18:57:19.028Z,38.40
2019-03-08T18:59:52.506Z,38.69
2019-03-08T19:02:27.227Z,38.51
2019-03-08T19:05:00.492Z,38.66
2019-03-08T19:07:35.350Z,38.61
2019-03-08T19:10:10.859Z,38.60
2019-03-08T19:12:44.142Z,38.66
2019-03-08T19:15:17.723Z,38.66
2019-03-08T19:17:51.148Z,38.63
2019-03-08T19:20:26.213Z,38.63
2019-03-08T19:23:01.116Z,38.58
2019-03-08T19:25:34.499Z,38.54
2019-03-08T19:28:09.078Z,38.58
2019-03-08T19:30:42.562Z,38.72
2019-03-08T19:33:16.055Z,38.39
2019-03-08T19:35:49.342Z,38.48
2019-03-08T19:38:22.581Z,38.43
2019-03-08T19:40:56.069Z,38.32
2019-03-08T19:43:29.314Z,37.95
2019-03-08T19:46:02.658Z,38.18
2019-03-08T19:48:35.961Z,38.09
2019-03-08T19:51:09.611Z,38.21
2019-03-08T19:53:44.296Z,38.26
2019-03-08T19:56:17.650Z,38.22
2019-03-08T19:58:50.987Z,38.13
2019-03-08T20:01:24.217Z,38.15
2019-03-08T20:03:57.402Z,38.07
2019-03-08T20:06:30.759Z,37.63
2019-03-08T20:09:04.081Z,37.89
2019-03-08T20:11:37.615Z,37.63
2019-03-08T20:14:11.132Z,37.57
2019-03-08T20:16:44.466Z,37.74
2019-03-08T20:19:19.075Z,37.70
2019-03-08T20:21:52.557Z,37.52
2019-03-08T20:24:26.034Z,37.66
2019-03-08T20:26:59.337Z,37.69
2019-03-08T20:29:33.181Z,37.70
2019-03-08T20:32:06.726Z,37.57
2019-03-08T20:34:40.067Z,37.52
2019-03-08T20:37:13.375Z,37.43
2019-03-08T20:39:48.687Z,37.55
2019-03-08T20:42:21.989Z,37.63
2019-03-08T20:44:55.336Z,37.76
2019-03-08T20:47:28.638Z,37.76
2019-03-08T20:50:01.919Z,37.62
2019-03-08T20:52:35.180Z,37.92
2019-03-08T20:55:10.742Z,37.92
2019-03-08T20:57:43.987Z,37.90
2019-03-08T21:00:21.226Z,37.48
2019-03-08T21:02:54.740Z,37.70
2019-03-08T21:05:27.932Z,37.96
2019-03-08T21:08:01.292Z,37.65
2019-03-08T21:10:35.059Z,37.86
2019-03-08T21:13:08.355Z,37.81
2019-03-08T21:15:41.634Z,37.83
2019-03-08T21:18:14.979Z,37.85
2019-03-08T21:20:48.598Z,37.64
2019-03-08T21:23:21.854Z,37.93
2019-03-08T21:25:55.122Z,37.87
2019-03-08T21:28:28.385Z,37.62
2019-03-08T21:31:02.081Z,37.38
2019-03-08T21:33:35.523Z,37.16
2019-03-08T21:36:08.949Z,37.40
2019-03-08T21:38:42.227Z,37.27
2019-03-08T21:41:15.739Z,37.30
2019-03-08T21:43:49.106Z,37.32
2019-03-08T21:46:22.360Z,37.38
2019-03-08T21:48:55.613Z,37.26
2019-03-08T21:51:29.319Z,37.36
2019-03-08T21:54:02.654Z,37.26
2019-03-08T21:56:36.017Z,37.33
2019-03-08T21:59:09.333Z,37.60
2019-03-08T22:01:42.602Z,37.45
2019-03-08T22:04:15.882Z,37.41
2019-03-08T22:06:49.185Z,37.47
2019-03-08T22:09:22.477Z,37.73
2019-03-08T22:11:55.845Z,37.71
2019-03-08T22:14:29.186Z,37.94
2019-03-08T22:17:03.777Z,37.86
2019-03-08T22:19:37.167Z,38.06
2019-03-08T22:22:10.991Z,38.00
2019-03-08T22:24:44.399Z,38.18
2019-03-08T22:27:17.774Z,38.27
2019-03-08T22:29:51.044Z,38.25
2019-03-08T22:32:24.321Z,38.25
2019-03-08T22:34:57.689Z,38.58
2019-03-08T22:37:32.427Z,38.90
2019-03-08T22:40:05.901Z,38.72
2019-03-08T22:42:40.046Z,38.90
2019-03-08T22:45:14.527Z,38.87
2019-03-08T22:47:47.907Z,39.16
2019-03-08T22:50:22.786Z,39.01
2019-03-08T22:52:56.196Z,39.20
2019-03-08T22:55:29.528Z,39.33
2019-03-08T22:58:04.562Z,39.52
2019-03-08T23:00:54.994Z,39.99
2019-03-08T23:03:29.023Z,40.01
2019-03-08T23:06:02.273Z,40.14
2019-03-08T23:08:38.235Z,39.84
2019-03-08T23:11:11.883Z,40.14
2019-03-08T23:13:45.211Z,40.39
2019-03-08T23:16:18.742Z,40.89
2019-03-08T23:18:52.408Z,40.83
2019-03-08T23:21:27.047Z,40.65
2019-03-08T23:24:02.336Z,40.66
2019-03-08T23:26:35.886Z,40.92
2019-03-08T23:29:09.191Z,40.85
2019-03-08T23:31:42.653Z,41.10
2019-03-08T23:34:16.096Z,41.06
2019-03-08T23:36:49.686Z,41.11
2019-03-08T23:39:24.822Z,41.15
2019-03-08T23:41:59.370Z,40.95
2019-03-08T23:44:34.320Z,40.76
2019-03-08T23:47:08.624Z,40.73
2019-03-08T23:49:43.420Z,41.07
2019-03-08T23:52:17.123Z,41.03
2019-03-08T23:54:51.216Z,40.47
2019-03-08T23:57:34.000Z,40.07
